sensor_id;sensor_type;location;lat;lon;timestamp;pressure;altitude;pressure_sealevel;temperature;humidity
29467;BME280;60968;37.490;-122.288;2022-12-10T00:00:51;99074.03;;;9.92;71.76
29467;BME280;60968;37.490;-122.288;2022-12-10T00:03:52;99066.22;;;9.92;73.99
29467;BME280;60968;37.490;-122.288;2022-12-10T00:06:55;99063.66;;;9.89;72.00
29467;BME280;60968;37.490;-122.288;2022-12-10T00:09:57;99061.91;;;9.90;71.90
29467;BME280;60968;37.490;-122.288;2022-12-10T00:12:58;99066.31;;;9.85;71.73
29467;BME280;60968;37.490;-122.288;2022-12-10T00:16:00;99061.13;;;9.82;71.10
29467;BME280;60968;37.490;-122.288;2022-12-10T00:19:03;99064.66;;;9.79;70.13
29467;BME280;60968;37.490;-122.288;2022-12-10T00:22:04;99053.34;;;9.78;72.77
29467;BME280;60968;37.490;-122.288;2022-12-10T00:25:05;99047.34;;;9.70;71.91
29467;BME280;60968;37.490;-122.288;2022-12-10T00:28:06;99037.91;;;9.63;70.34
29467;BME280;60968;37.490;-122.288;2022-12-10T00:31:13;99035.41;;;9.54;73.59
29467;BME280;60968;37.490;-122.288;2022-12-10T00:34:15;99038.97;;;9.40;75.65
29467;BME280;60968;37.490;-122.288;2022-12-10T00:37:16;99046.88;;;9.30;75.47
29467;BME280;60968;37.490;-122.288;2022-12-10T00:40:17;99038.22;;;9.27;76.94
29467;BME280;60968;37.490;-122.288;2022-12-10T00:43:18;99033.94;;;9.22;77.37
29467;BME280;60968;37.490;-122.288;2022-12-10T00:46:19;99034.91;;;9.10;77.89
29467;BME280;60968;37.490;-122.288;2022-12-10T00:49:20;99040.13;;;9.04;79.06
29467;BME280;60968;37.490;-122.288;2022-12-10T00:52:21;99038.44;;;8.98;78.02
29467;BME280;60968;37.490;-122.288;2022-12-10T00:55:21;99033.22;;;9.01;76.27
29467;BME280;60968;37.490;-122.288;2022-12-10T00:58:23;99020.22;;;9.01;77.04
29467;BME280;60968;37.490;-122.288;2022-12-10T01:01:39;99019.34;;;9.05;79.03
29467;BME280;60968;37.490;-122.288;2022-12-10T01:04:41;99009.78;;;9.09;78.74
29467;BME280;60968;37.490;-122.288;2022-12-10T01:07:41;99015.81;;;9.13;79.59
29467;BME280;60968;37.490;-122.288;2022-12-10T01:10:42;99010.59;;;9.16;79.21
29467;BME280;60968;37.490;-122.288;2022-12-10T01:13:44;99009.72;;;9.20;80.53
29467;BME280;60968;37.490;-122.288;2022-12-10T01:16:45;98996.69;;;9.23;79.55
29467;BME280;60968;37.490;-122.288;2022-12-10T01:19:47;99010.53;;;9.22;81.72
29467;BME280;60968;37.490;-122.288;2022-12-10T01:22:49;99003.66;;;9.18;82.65
29467;BME280;60968;37.490;-122.288;2022-12-10T01:25:50;99004.50;;;9.20;83.96
29467;BME280;60968;37.490;-122.288;2022-12-10T01:28:51;98994.94;;;9.22;85.38
29467;BME280;60968;37.490;-122.288;2022-12-10T01:31:54;98994.94;;;9.23;86.34
29467;BME280;60968;37.490;-122.288;2022-12-10T01:34:55;98993.19;;;9.24;86.92
29467;BME280;60968;37.490;-122.288;2022-12-10T01:37:56;98999.31;;;9.20;88.20
29467;BME280;60968;37.490;-122.288;2022-12-10T01:41:00;98993.25;;;9.18;86.60
29467;BME280;60968;37.490;-122.288;2022-12-10T01:47:10;98996.69;;;9.21;87.88
29467;BME280;60968;37.490;-122.288;2022-12-10T01:50:11;98982.78;;;9.22;88.19
29467;BME280;60968;37.490;-122.288;2022-12-10T01:53:14;98980.19;;;9.27;89.15
29467;BME280;60968;37.490;-122.288;2022-12-10T01:56:17;98981.75;;;9.40;88.42
29467;BME280;60968;37.490;-122.288;2022-12-10T01:59:19;98985.13;;;9.52;88.11
29467;BME280;60968;37.490;-122.288;2022-12-10T02:06:01;98960.72;;;9.64;82.66
29467;BME280;60968;37.490;-122.288;2022-12-10T02:15:36;98936.38;;;9.69;79.13
29467;BME280;60968;37.490;-122.288;2022-12-10T02:18:46;98929.44;;;9.68;81.89
29467;BME280;60968;37.490;-122.288;2022-12-10T02:21:51;98926.81;;;9.70;82.07
29467;BME280;60968;37.490;-122.288;2022-12-10T02:24:54;98921.56;;;9.74;81.55
29467;BME280;60968;37.490;-122.288;2022-12-10T02:28:17;98938.09;;;9.72;82.39
29467;BME280;60968;37.490;-122.288;2022-12-10T02:31:26;98941.53;;;9.72;83.32
29467;BME280;60968;37.490;-122.288;2022-12-10T02:34:35;98941.50;;;9.75;82.82
29467;BME280;60968;37.490;-122.288;2022-12-10T02:37:49;98935.50;;;9.72;84.30
29467;BME280;60968;37.490;-122.288;2022-12-10T02:41:08;98938.91;;;9.74;85.23
29467;BME280;60968;37.490;-122.288;2022-12-10T02:44:14;98935.38;;;9.79;86.82
29467;BME280;60968;37.490;-122.288;2022-12-10T02:47:16;98939.66;;;9.85;88.47
29467;BME280;60968;37.490;-122.288;2022-12-10T02:50:19;98939.59;;;9.88;88.97
29467;BME280;60968;37.490;-122.288;2022-12-10T02:53:21;98945.72;;;9.84;88.66
29467;BME280;60968;37.490;-122.288;2022-12-10T02:56:42;98952.19;;;9.52;91.82
29467;BME280;60968;37.490;-122.288;2022-12-10T02:59:58;98948.91;;;9.33;93.91
29467;BME280;60968;37.490;-122.288;2022-12-10T03:06:45;98963.84;;;9.09;96.96
29467;BME280;60968;37.490;-122.288;2022-12-10T03:09:53;98958.75;;;9.00;99.22
29467;BME280;60968;37.490;-122.288;2022-12-10T03:13:02;98956.16;;;8.96;100.00
29467;BME280;60968;37.490;-122.288;2022-12-10T03:16:05;98957.09;;;8.88;100.00
29467;BME280;60968;37.490;-122.288;2022-12-10T03:19:11;98950.19;;;8.84;100.00
29467;BME280;60968;37.490;-122.288;2022-12-10T03:22:16;98957.06;;;8.91;100.00
29467;BME280;60968;37.490;-122.288;2022-12-10T03:25:23;98960.59;;;8.89;100.00
29467;BME280;60968;37.490;-122.288;2022-12-10T03:28:26;98951.09;;;8.80;100.00
29467;BME280;60968;37.490;-122.288;2022-12-10T03:31:27;98954.59;;;8.76;100.00
29467;BME280;60968;37.490;-122.288;2022-12-10T03:34:29;98960.69;;;8.75;100.00
29467;BME280;60968;37.490;-122.288;2022-12-10T03:37:30;98946.75;;;8.84;100.00
29467;BME280;60968;37.490;-122.288;2022-12-10T03:40:32;98941.53;;;8.87;100.00
29467;BME280;60968;37.490;-122.288;2022-12-10T03:43:33;98950.16;;;8.92;100.00
29467;BME280;60968;37.490;-122.288;2022-12-10T03:46:35;98944.84;;;9.01;100.00
29467;BME280;60968;37.490;-122.288;2022-12-10T03:49:36;98947.50;;;8.98;100.00
29467;BME280;60968;37.490;-122.288;2022-12-10T03:52:37;98948.31;;;9.03;100.00
29467;BME280;60968;37.490;-122.288;2022-12-10T03:55:38;98942.31;;;8.97;100.00
29467;BME280;60968;37.490;-122.288;2022-12-10T03:58:39;98938.91;;;8.93;100.00
29467;BME280;60968;37.490;-122.288;2022-12-10T04:01:40;98937.91;;;9.05;100.00
29467;BME280;60968;37.490;-122.288;2022-12-10T04:04:41;98938.78;;;9.04;100.00
29467;BME280;60968;37.490;-122.288;2022-12-10T04:07:42;98938.00;;;8.92;100.00
29467;BME280;60968;37.490;-122.288;2022-12-10T04:10:43;98937.19;;;8.89;100.00
29467;BME280;60968;37.490;-122.288;2022-12-10T04:13:44;98932.00;;;8.84;100.00
29467;BME280;60968;37.490;-122.288;2022-12-10T04:16:47;98938.09;;;8.85;100.00
29467;BME280;60968;37.490;-122.288;2022-12-10T04:19:47;98930.31;;;8.83;100.00
29467;BME280;60968;37.490;-122.288;2022-12-10T04:22:48;98931.22;;;8.78;100.00
29467;BME280;60968;37.490;-122.288;2022-12-10T04:25:49;98930.34;;;8.77;100.00
29467;BME280;60968;37.490;-122.288;2022-12-10T04:28:50;98925.16;;;8.75;100.00
29467;BME280;60968;37.490;-122.288;2022-12-10T04:31:51;98926.03;;;8.74;100.00
29467;BME280;60968;37.490;-122.288;2022-12-10T04:34:53;98923.41;;;8.79;100.00
29467;BME280;60968;37.490;-122.288;2022-12-10T04:37:54;98931.19;;;8.81;100.00
29467;BME280;60968;37.490;-122.288;2022-12-10T04:40:54;98930.31;;;8.82;100.00
29467;BME280;60968;37.490;-122.288;2022-12-10T04:43:55;98945.00;;;8.84;100.00
29467;BME280;60968;37.490;-122.288;2022-12-10T04:46:58;98950.22;;;8.83;100.00
29467;BME280;60968;37.490;-122.288;2022-12-10T04:50:00;98945.00;;;8.84;100.00
29467;BME280;60968;37.490;-122.288;2022-12-10T04:53:01;98948.50;;;8.85;100.00
29467;BME280;60968;37.490;-122.288;2022-12-10T04:56:02;98934.59;;;8.87;100.00
29467;BME280;60968;37.490;-122.288;2022-12-10T04:59:04;98935.50;;;8.83;100.00
29467;BME280;60968;37.490;-122.288;2022-12-10T05:02:05;98926.00;;;8.76;100.00
29467;BME280;60968;37.490;-122.288;2022-12-10T05:05:07;98926.06;;;8.73;100.00
29467;BME280;60968;37.490;-122.288;2022-12-10T05:08:07;98930.44;;;8.69;100.00
29467;BME280;60968;37.490;-122.288;2022-12-10T05:11:17;98926.94;;;8.69;100.00
29467;BME280;60968;37.490;-122.288;2022-12-10T05:14:18;98910.44;;;8.74;100.00
29467;BME280;60968;37.490;-122.288;2022-12-10T05:17:19;98903.53;;;8.75;100.00
29467;BME280;60968;37.490;-122.288;2022-12-10T05:20:20;98903.53;;;8.75;100.00
29467;BME280;60968;37.490;-122.288;2022-12-10T05:23:20;98907.88;;;8.73;99.77
29467;BME280;60968;37.490;-122.288;2022-12-10T05:26:23;98902.66;;;8.74;98.56
29467;BME280;60968;37.490;-122.288;2022-12-10T05:29:24;98906.16;;;8.73;98.41
29467;BME280;60968;37.490;-122.288;2022-12-10T05:32:25;98905.28;;;8.71;98.74
29467;BME280;60968;37.490;-122.288;2022-12-10T05:35:26;98896.63;;;8.72;98.36
29467;BME280;60968;37.490;-122.288;2022-12-10T05:38:28;98887.94;;;8.77;98.26
29467;BME280;60968;37.490;-122.288;2022-12-10T05:41:33;98881.88;;;8.73;97.83
29467;BME280;60968;37.490;-122.288;2022-12-10T05:44:35;98887.13;;;8.68;98.55
29467;BME280;60968;37.490;-122.288;2022-12-10T05:47:35;98884.56;;;8.65;98.90
29467;BME280;60968;37.490;-122.288;2022-12-10T05:50:36;98880.22;;;8.66;99.19
29467;BME280;60968;37.490;-122.288;2022-12-10T05:53:38;98878.53;;;8.62;99.30
29467;BME280;60968;37.490;-122.288;2022-12-10T05:56:39;98871.59;;;8.61;99.31
29467;BME280;60968;37.490;-122.288;2022-12-10T05:59:42;98870.75;;;8.58;100.00
29467;BME280;60968;37.490;-122.288;2022-12-10T06:02:42;98859.56;;;8.50;97.25
29467;BME280;60968;37.490;-122.288;2022-12-10T06:05:43;98852.63;;;8.54;91.33
29467;BME280;60968;37.490;-122.288;2022-12-10T06:08:44;98854.34;;;8.56;92.38
29467;BME280;60968;37.490;-122.288;2022-12-10T06:11:45;98843.97;;;8.53;91.10
29467;BME280;60968;37.490;-122.288;2022-12-10T06:14:46;98835.28;;;8.56;90.81
29467;BME280;60968;37.490;-122.288;2022-12-10T06:17:47;98832.69;;;8.57;93.85
29467;BME280;60968;37.490;-122.288;2022-12-10T06:20:48;98829.25;;;8.51;89.70
29467;BME280;60968;37.490;-122.288;2022-12-10T06:23:50;98843.09;;;8.54;88.60
29467;BME280;60968;37.490;-122.288;2022-12-10T06:26:51;98849.16;;;8.53;90.64
29467;BME280;60968;37.490;-122.288;2022-12-10T06:29:52;98849.16;;;8.52;89.91
29467;BME280;60968;37.490;-122.288;2022-12-10T06:32:52;98847.44;;;8.52;87.35
29467;BME280;60968;37.490;-122.288;2022-12-10T06:35:53;98838.75;;;8.55;85.32
29467;BME280;60968;37.490;-122.288;2022-12-10T06:38:54;98830.06;;;8.57;87.06
29467;BME280;60968;37.490;-122.288;2022-12-10T06:41:55;98819.66;;;8.59;85.17
29467;BME280;60968;37.490;-122.288;2022-12-10T06:44:56;98831.78;;;8.60;85.41
29467;BME280;60968;37.490;-122.288;2022-12-10T06:47:59;98830.06;;;8.57;85.17
29467;BME280;60968;37.490;-122.288;2022-12-10T06:51:00;98828.31;;;8.61;84.47
29467;BME280;60968;37.490;-122.288;2022-12-10T06:54:01;98820.56;;;8.55;86.36
29467;BME280;60968;37.490;-122.288;2022-12-10T06:57:02;98818.84;;;8.57;86.91
29467;BME280;60968;37.490;-122.288;2022-12-10T07:00:04;98818.00;;;8.56;87.12
29467;BME280;60968;37.490;-122.288;2022-12-10T07:03:05;98810.19;;;8.55;87.98
29467;BME280;60968;37.490;-122.288;2022-12-10T07:06:07;98804.09;;;8.57;89.98
29467;BME280;60968;37.490;-122.288;2022-12-10T07:09:10;98799.84;;;8.50;91.01
29467;BME280;60968;37.490;-122.288;2022-12-10T07:12:10;98815.44;;;8.49;92.67
29467;BME280;60968;37.490;-122.288;2022-12-10T07:15:11;98819.81;;;8.47;93.96
29467;BME280;60968;37.490;-122.288;2022-12-10T07:18:12;98806.78;;;8.44;94.58
29467;BME280;60968;37.490;-122.288;2022-12-10T07:24:24;98799.91;;;8.39;94.70
29467;BME280;60968;37.490;-122.288;2022-12-10T07:27:24;98798.19;;;8.38;95.09
29467;BME280;60968;37.490;-122.288;2022-12-10T07:30:25;98798.19;;;8.38;95.16
29467;BME280;60968;37.490;-122.288;2022-12-10T07:33:27;98793.88;;;8.37;94.65
29467;BME280;60968;37.490;-122.288;2022-12-10T07:36:29;98784.34;;;8.36;94.36
29467;BME280;60968;37.490;-122.288;2022-12-10T07:43:29;98780.03;;;8.37;94.38
29467;BME280;60968;37.490;-122.288;2022-12-10T07:46:32;98770.53;;;8.34;94.99
29467;BME280;60968;37.490;-122.288;2022-12-10T07:49:36;98765.34;;;8.34;95.40
29467;BME280;60968;37.490;-122.288;2022-12-10T07:52:37;98761.88;;;8.34;96.38
29467;BME280;60968;37.490;-122.288;2022-12-10T07:55:38;98748.88;;;8.35;96.68
29467;BME280;60968;37.490;-122.288;2022-12-10T07:58:43;98748.03;;;8.33;97.64
29467;BME280;60968;37.490;-122.288;2022-12-10T08:01:44;98736.78;;;8.34;97.44
29467;BME280;60968;37.490;-122.288;2022-12-10T08:04:45;98737.63;;;8.36;98.39
29467;BME280;60968;37.490;-122.288;2022-12-10T08:07:46;98729.00;;;8.36;98.67
29467;BME280;60968;37.490;-122.288;2022-12-10T08:10:47;98725.50;;;8.35;99.44
29467;BME280;60968;37.490;-122.288;2022-12-10T08:13:49;98723.84;;;8.31;100.00
29467;BME280;60968;37.490;-122.288;2022-12-10T08:16:50;98720.38;;;8.31;100.00
29467;BME280;60968;37.490;-122.288;2022-12-10T08:19:50;98695.31;;;8.28;100.00
29467;BME280;60968;37.490;-122.288;2022-12-10T08:22:51;98691.81;;;8.31;100.00
29467;BME280;60968;37.490;-122.288;2022-12-10T08:25:52;98685.75;;;8.32;100.00
29467;BME280;60968;37.490;-122.288;2022-12-10T08:28:54;98666.72;;;8.30;100.00
29467;BME280;60968;37.490;-122.288;2022-12-10T08:31:55;98654.63;;;8.30;100.00
29467;BME280;60968;37.490;-122.288;2022-12-10T08:34:56;98668.41;;;8.34;100.00
29467;BME280;60968;37.490;-122.288;2022-12-10T08:37:57;98652.00;;;8.33;100.00
29467;BME280;60968;37.490;-122.288;2022-12-10T08:40:58;98641.59;;;8.35;100.00
29467;BME280;60968;37.490;-122.288;2022-12-10T08:43:58;98654.53;;;8.38;100.00
29467;BME280;60968;37.490;-122.288;2022-12-10T08:46:59;98648.47;;;8.39;100.00
29467;BME280;60968;37.490;-122.288;2022-12-10T08:50:00;98642.44;;;8.35;100.00
29467;BME280;60968;37.490;-122.288;2022-12-10T08:53:01;98646.75;;;8.41;100.00
29467;BME280;60968;37.490;-122.288;2022-12-10T08:56:02;98651.00;;;8.44;100.00
29467;BME280;60968;37.490;-122.288;2022-12-10T08:59:03;98653.59;;;8.44;100.00
29467;BME280;60968;37.490;-122.288;2022-12-10T09:02:04;98647.56;;;8.45;100.00
29467;BME280;60968;37.490;-122.288;2022-12-10T09:05:06;98644.13;;;8.46;100.00
29467;BME280;60968;37.490;-122.288;2022-12-10T09:08:10;98653.59;;;8.50;100.00
29467;BME280;60968;37.490;-122.288;2022-12-10T09:11:19;98648.41;;;8.48;100.00
29467;BME280;60968;37.490;-122.288;2022-12-10T09:14:20;98644.13;;;8.46;100.00
29467;BME280;60968;37.490;-122.288;2022-12-10T09:17:21;98630.25;;;8.42;100.00
29467;BME280;60968;37.490;-122.288;2022-12-10T09:20:22;98631.16;;;8.41;100.00
29467;BME280;60968;37.490;-122.288;2022-12-10T09:23:24;98620.75;;;8.46;100.00
29467;BME280;60968;37.490;-122.288;2022-12-10T09:26:26;98615.56;;;8.43;100.00
29467;BME280;60968;37.490;-122.288;2022-12-10T09:29:29;98614.66;;;8.44;100.00
29467;BME280;60968;37.490;-122.288;2022-12-10T09:32:31;98611.25;;;8.40;100.00
29467;BME280;60968;37.490;-122.288;2022-12-10T09:35:32;98601.72;;;8.40;100.00
29467;BME280;60968;37.490;-122.288;2022-12-10T09:38:34;98599.97;;;8.43;100.00
29467;BME280;60968;37.490;-122.288;2022-12-10T09:51:55;98573.13;;;8.47;100.00
29467;BME280;60968;37.490;-122.288;2022-12-10T09:54:59;98576.59;;;8.46;100.00
29467;BME280;60968;37.490;-122.288;2022-12-10T09:58:04;98571.38;;;8.47;100.00
29467;BME280;60968;37.490;-122.288;2022-12-10T10:01:06;98565.28;;;8.51;100.00
29467;BME280;60968;37.490;-122.288;2022-12-10T10:04:13;98554.84;;;8.54;100.00
29467;BME280;60968;37.490;-122.288;2022-12-10T10:07:26;98560.00;;;8.57;100.00
29467;BME280;60968;37.490;-122.288;2022-12-10T10:10:38;98554.78;;;8.59;100.00
29467;BME280;60968;37.490;-122.288;2022-12-10T10:13:55;98550.44;;;8.61;100.00
29467;BME280;60968;37.490;-122.288;2022-12-10T10:17:03;98554.75;;;8.62;100.00
29467;BME280;60968;37.490;-122.288;2022-12-10T10:20:05;98558.13;;;8.67;100.00
29467;BME280;60968;37.490;-122.288;2022-12-10T10:23:08;98563.31;;;8.69;100.00
29467;BME280;60968;37.490;-122.288;2022-12-10T10:26:09;98566.72;;;8.72;100.00
29467;BME280;60968;37.490;-122.288;2022-12-10T10:29:12;98563.19;;;8.78;100.00
29467;BME280;60968;37.490;-122.288;2022-12-10T10:35:31;98541.50;;;8.81;100.00
29467;BME280;60968;37.490;-122.288;2022-12-10T10:38:33;98551.03;;;8.79;100.00
29467;BME280;60968;37.490;-122.288;2022-12-10T10:41:37;98544.09;;;8.81;100.00
29467;BME280;60968;37.490;-122.288;2022-12-10T10:44:38;98546.69;;;8.81;100.00
29467;BME280;60968;37.490;-122.288;2022-12-10T10:47:43;98532.81;;;8.83;100.00
29467;BME280;60968;37.490;-122.288;2022-12-10T10:50:51;98533.63;;;8.85;100.00
29467;BME280;60968;37.490;-122.288;2022-12-10T10:53:53;98536.25;;;8.84;100.00
29467;BME280;60968;37.490;-122.288;2022-12-10T10:56:55;98544.03;;;8.85;100.00
29467;BME280;60968;37.490;-122.288;2022-12-10T11:00:04;98531.06;;;8.84;100.00
29467;BME280;60968;37.490;-122.288;2022-12-10T11:03:06;98531.06;;;8.84;100.00
29467;BME280;60968;37.490;-122.288;2022-12-10T11:06:07;98510.19;;;8.90;100.00
29467;BME280;60968;37.490;-122.288;2022-12-10T11:09:20;98509.25;;;8.94;100.00
29467;BME280;60968;37.490;-122.288;2022-12-10T11:15:41;98485.81;;;8.99;100.00
29467;BME280;60968;37.490;-122.288;2022-12-10T11:22:21;98479.84;;;8.92;100.00
29467;BME280;60968;37.490;-122.288;2022-12-10T11:39:16;98459.72;;;9.05;100.00
29467;BME280;60968;37.490;-122.288;2022-12-10T11:42:30;98445.75;;;9.10;100.00
29467;BME280;60968;37.490;-122.288;2022-12-10T11:49:09;98439.69;;;9.12;100.00
29467;BME280;60968;37.490;-122.288;2022-12-10T12:03:10;98407.84;;;9.00;100.00
29467;BME280;60968;37.490;-122.288;2022-12-10T12:06:36;98402.75;;;8.92;100.00
29467;BME280;60968;37.490;-122.288;2022-12-10T12:09:54;98398.69;;;8.78;100.00
29467;BME280;60968;37.490;-122.288;2022-12-10T12:13:15;98397.09;;;8.67;100.00
29467;BME280;60968;37.490;-122.288;2022-12-10T12:16:26;98371.22;;;8.63;100.00
29467;BME280;60968;37.490;-122.288;2022-12-10T12:19:58;98365.22;;;8.59;100.00
29467;BME280;60968;37.490;-122.288;2022-12-10T12:23:15;98358.34;;;8.56;100.00
29467;BME280;60968;37.490;-122.288;2022-12-10T12:32:47;98327.34;;;8.44;100.00
29467;BME280;60968;37.490;-122.288;2022-12-10T12:36:06;98316.09;;;8.45;100.00
29467;BME280;60968;37.490;-122.288;2022-12-10T12:42:35;98308.97;;;8.58;100.00
29467;BME280;60968;37.490;-122.288;2022-12-10T12:45:49;98297.59;;;8.65;100.00
29467;BME280;60968;37.490;-122.288;2022-12-10T12:49:06;98275.91;;;8.68;100.00
29467;BME280;60968;37.490;-122.288;2022-12-10T12:59:04;98250.56;;;8.81;100.00
29467;BME280;60968;37.490;-122.288;2022-12-10T13:05:39;98230.31;;;8.97;100.00
29467;BME280;60968;37.490;-122.288;2022-12-10T13:08:46;98225.94;;;9.00;100.00
29467;BME280;60968;37.490;-122.288;2022-12-10T13:15:19;98191.31;;;8.98;100.00
29467;BME280;60968;37.490;-122.288;2022-12-10T13:18:33;98198.38;;;8.93;100.00
29467;BME280;60968;37.490;-122.288;2022-12-10T13:21:35;98210.59;;;8.88;100.00
29467;BME280;60968;37.490;-122.288;2022-12-10T13:25:14;98194.16;;;8.86;100.00
29467;BME280;60968;37.490;-122.288;2022-12-10T13:31:34;98179.47;;;8.85;100.00
29467;BME280;60968;37.490;-122.288;2022-12-10T13:34:36;98179.28;;;8.94;100.00
29467;BME280;60968;37.490;-122.288;2022-12-10T13:41:01;98179.81;;;9.10;100.00
29467;BME280;60968;37.490;-122.288;2022-12-10T13:51:22;98160.06;;;9.40;100.00
29467;BME280;60968;37.490;-122.288;2022-12-10T13:54:05;98142.72;;;9.42;100.00
29467;BME280;60968;37.490;-122.288;2022-12-10T14:01:02;98122.94;;;9.71;100.00
29467;BME280;60968;37.490;-122.288;2022-12-10T14:08:05;98123.66;;;9.78;100.00
29467;BME280;60968;37.490;-122.288;2022-12-10T14:11:20;98145.34;;;9.77;100.00
29467;BME280;60968;37.490;-122.288;2022-12-10T14:14:34;98116.06;;;10.03;100.00
29467;BME280;60968;37.490;-122.288;2022-12-10T14:17:39;98126.94;;;10.18;100.00
29467;BME280;60968;37.490;-122.288;2022-12-10T14:20:45;98152.38;;;10.42;100.00
29467;BME280;60968;37.490;-122.288;2022-12-10T14:23:48;98148.22;;;10.35;100.00
29467;BME280;60968;37.490;-122.288;2022-12-10T14:27:00;98142.25;;;10.30;100.00
29467;BME280;60968;37.490;-122.288;2022-12-10T14:30:15;98143.19;;;10.27;100.00
29467;BME280;60968;37.490;-122.288;2022-12-10T14:33:19;98132.81;;;10.26;100.00
29467;BME280;60968;37.490;-122.288;2022-12-10T14:36:49;98146.69;;;10.26;100.00
29467;BME280;60968;37.490;-122.288;2022-12-10T14:39:52;98134.28;;;10.36;100.00
29467;BME280;60968;37.490;-122.288;2022-12-10T14:43:04;98127.13;;;10.44;100.00
29467;BME280;60968;37.490;-122.288;2022-12-10T14:46:14;98127.97;;;10.46;100.00
29467;BME280;60968;37.490;-122.288;2022-12-10T14:49:24;98120.91;;;10.50;100.00
29467;BME280;60968;37.490;-122.288;2022-12-10T14:52:32;98095.72;;;10.51;100.00
29467;BME280;60968;37.490;-122.288;2022-12-10T14:55:34;98085.84;;;10.62;100.00
29467;BME280;60968;37.490;-122.288;2022-12-10T14:58:45;98097.59;;;10.75;100.00
29467;BME280;60968;37.490;-122.288;2022-12-10T15:01:52;98092.34;;;10.77;100.00
29467;BME280;60968;37.490;-122.288;2022-12-10T15:04:54;98080.94;;;10.81;100.00
29467;BME280;60968;37.490;-122.288;2022-12-10T15:08:05;98060.59;;;10.92;100.00
29467;BME280;60968;37.490;-122.288;2022-12-10T15:11:07;98066.50;;;10.99;100.00
29467;BME280;60968;37.490;-122.288;2022-12-10T15:14:16;98066.97;;;11.12;100.00
29467;BME280;60968;37.490;-122.288;2022-12-10T15:17:37;98066.13;;;11.11;100.00
29467;BME280;60968;37.490;-122.288;2022-12-10T15:20:46;98066.00;;;11.14;100.00
29467;BME280;60968;37.490;-122.288;2022-12-10T15:23:48;98039.72;;;11.21;100.00
29467;BME280;60968;37.490;-122.288;2022-12-10T15:26:51;98048.06;;;11.32;100.00
29467;BME280;60968;37.490;-122.288;2022-12-10T15:29:52;98042.50;;;11.43;100.00
29467;BME280;60968;37.490;-122.288;2022-12-10T15:32:53;98049.47;;;11.42;100.00
29467;BME280;60968;37.490;-122.288;2022-12-10T15:35:56;98032.72;;;11.49;100.00
29467;BME280;60968;37.490;-122.288;2022-12-10T15:38:57;98034.00;;;11.63;100.00
29467;BME280;60968;37.490;-122.288;2022-12-10T15:42:06;98019.09;;;11.66;100.00
29467;BME280;60968;37.490;-122.288;2022-12-10T15:45:25;98014.31;;;11.79;100.00
29467;BME280;60968;37.490;-122.288;2022-12-10T15:48:29;98010.84;;;11.79;100.00
29467;BME280;60968;37.490;-122.288;2022-12-10T15:51:30;98014.00;;;11.89;100.00
29467;BME280;60968;37.490;-122.288;2022-12-10T15:54:38;98014.88;;;11.88;100.00
29467;BME280;60968;37.490;-122.288;2022-12-10T15:57:44;98009.66;;;11.88;100.00
29467;BME280;60968;37.490;-122.288;2022-12-10T16:00:45;98009.03;;;11.81;100.00
29467;BME280;60968;37.490;-122.288;2022-12-10T16:03:46;98026.22;;;11.87;100.00
29467;BME280;60968;37.490;-122.288;2022-12-10T16:06:47;98041.00;;;11.88;100.00
29467;BME280;60968;37.490;-122.288;2022-12-10T16:09:48;98028.94;;;11.83;100.00
29467;BME280;60968;37.490;-122.288;2022-12-10T16:12:59;98029.19;;;11.77;100.00
29467;BME280;60968;37.490;-122.288;2022-12-10T16:16:09;98048.88;;;11.86;100.00
29467;BME280;60968;37.490;-122.288;2022-12-10T16:19:19;98047.13;;;11.87;100.00
29467;BME280;60968;37.490;-122.288;2022-12-10T16:22:20;98026.13;;;11.90;100.00
29467;BME280;60968;37.490;-122.288;2022-12-10T16:25:22;98030.28;;;11.97;100.00
29467;BME280;60968;37.490;-122.288;2022-12-10T16:28:24;98038.34;;;12.14;100.00
29467;BME280;60968;37.490;-122.288;2022-12-10T16:31:25;98021.53;;;12.22;100.00
29467;BME280;60968;37.490;-122.288;2022-12-10T16:34:25;98030.84;;;12.29;100.00
29467;BME280;60968;37.490;-122.288;2022-12-10T16:37:27;98020.47;;;12.51;100.00
29467;BME280;60968;37.490;-122.288;2022-12-10T16:40:28;98017.06;;;12.49;100.00
29467;BME280;60968;37.490;-122.288;2022-12-10T16:43:29;98026.38;;;12.32;100.00
29467;BME280;60968;37.490;-122.288;2022-12-10T16:46:30;98010.41;;;12.40;100.00
29467;BME280;60968;37.490;-122.288;2022-12-10T16:49:34;98018.09;;;12.45;100.00
29467;BME280;60968;37.490;-122.288;2022-12-10T16:52:35;98016.56;;;12.39;100.00
29467;BME280;60968;37.490;-122.288;2022-12-10T16:55:38;97997.53;;;12.35;100.00
29467;BME280;60968;37.490;-122.288;2022-12-10T16:58:39;98011.22;;;12.42;100.00
29467;BME280;60968;37.490;-122.288;2022-12-10T17:01:40;98021.78;;;12.39;100.00
29467;BME280;60968;37.490;-122.288;2022-12-10T17:04:41;98013.81;;;12.66;100.00
29467;BME280;60968;37.490;-122.288;2022-12-10T17:07:43;97996.66;;;12.59;100.00
29467;BME280;60968;37.490;-122.288;2022-12-10T17:10:44;97977.38;;;12.39;100.00
29467;BME280;60968;37.490;-122.288;2022-12-10T17:13:45;97993.13;;;12.36;100.00
29467;BME280;60968;37.490;-122.288;2022-12-10T17:16:47;97984.00;;;12.24;100.00
29467;BME280;60968;37.490;-122.288;2022-12-10T17:19:47;98000.94;;;12.38;100.00
29467;BME280;60968;37.490;-122.288;2022-12-10T17:22:48;98007.97;;;12.59;100.00
29467;BME280;60968;37.490;-122.288;2022-12-10T17:25:52;98018.91;;;12.69;100.00
29467;BME280;60968;37.490;-122.288;2022-12-10T17:29:16;98014.66;;;12.66;100.00
29467;BME280;60968;37.490;-122.288;2022-12-10T17:32:19;98015.59;;;12.64;100.00
29467;BME280;60968;37.490;-122.288;2022-12-10T17:35:21;98040.19;;;12.82;100.00